Terminal Aerodrome Forecast
Issued by NWS

Home | Current Version | Previous Version | Text Only | Print | Product List | Glossary On
Versions: 1 2 3 4 5 6 7 8 9 10 11 12 13 14 15 16 17 18 19 20 21 22 23 24 25 26
000
FTUS41 KOKX 291746
TAFHPN
TAF
KHPN 291746Z 2918/3018 08007KT P6SM SCT060 BKN080
     FM292100 12008KT P6SM -SHRA OVC050
     FM300000 09005KT P6SM -SHRA OVC050
     FM300200 VRB04KT P6SM VCSH FEW020 OVC045
     FM301200 02006KT P6SM FEW060 SCT250
     FM301600 08006KT P6SM FEW060 SCT250
      AMD NOT SKED=

USA.gov is the U.S. government's official web portal to all federal, state and local government web resources and services.